sensor_id;sensor_type;location;lat;lon;timestamp;pressure;altitude;pressure_sealevel;temperature;humidity
16355;BME280;8287;51.644;8.494;2023-07-31T00:00:18;99843.69;;;18.57;98.16
16355;BME280;8287;51.644;8.494;2023-07-31T00:02:44;99840.34;;;18.71;97.46
16355;BME280;8287;51.644;8.494;2023-07-31T00:05:11;99843.34;;;18.62;98.18
16355;BME280;8287;51.644;8.494;2023-07-31T00:07:38;99835.34;;;18.66;97.68
16355;BME280;8287;51.644;8.494;2023-07-31T00:10:05;99834.88;;;18.57;98.79
16355;BME280;8287;51.644;8.494;2023-07-31T00:12:33;99834.88;;;18.60;98.75
16355;BME280;8287;51.644;8.494;2023-07-31T00:15:00;99826.47;;;18.62;98.93
16355;BME280;8287;51.644;8.494;2023-07-31T00:17:26;99828.81;;;18.67;98.62
16355;BME280;8287;51.644;8.494;2023-07-31T00:19:53;99816.97;;;18.71;98.21
16355;BME280;8287;51.644;8.494;2023-07-31T00:22:19;99817.03;;;18.75;97.31
16355;BME280;8287;51.644;8.494;2023-07-31T00:24:46;99820.47;;;18.75;97.62
16355;BME280;8287;51.644;8.494;2023-07-31T00:27:13;99812.06;;;18.80;97.22
16355;BME280;8287;51.644;8.494;2023-07-31T00:29:41;99808.56;;;18.76;97.42
16355;BME280;8287;51.644;8.494;2023-07-31T00:32:07;99816.94;;;18.68;98.34
16355;BME280;8287;51.644;8.494;2023-07-31T00:34:34;99808.88;;;18.64;98.29
16355;BME280;8287;51.644;8.494;2023-07-31T00:37:01;99814.34;;;18.75;97.67
16355;BME280;8287;51.644;8.494;2023-07-31T00:39:27;99797.16;;;18.83;97.00
16355;BME280;8287;51.644;8.494;2023-07-31T00:41:54;99798.19;;;18.71;97.62
16355;BME280;8287;51.644;8.494;2023-07-31T00:44:21;99797.47;;;18.78;96.99
16355;BME280;8287;51.644;8.494;2023-07-31T00:46:49;99800.94;;;18.78;97.13
16355;BME280;8287;51.644;8.494;2023-07-31T00:49:15;99802.06;;;18.74;97.58
16355;BME280;8287;51.644;8.494;2023-07-31T00:51:42;99796.69;;;18.74;97.88
16355;BME280;8287;51.644;8.494;2023-07-31T00:54:09;99791.00;;;18.82;97.70
16355;BME280;8287;51.644;8.494;2023-07-31T00:56:36;99793.72;;;18.86;97.29
16355;BME280;8287;51.644;8.494;2023-07-31T00:59:03;99781.44;;;18.85;96.91
16355;BME280;8287;51.644;8.494;2023-07-31T01:01:29;99786.00;;;18.81;98.01
16355;BME280;8287;51.644;8.494;2023-07-31T01:03:57;99787.56;;;18.82;97.88
16355;BME280;8287;51.644;8.494;2023-07-31T01:06:30;99781.50;;;18.92;97.22
16355;BME280;8287;51.644;8.494;2023-07-31T01:09:02;99791.06;;;18.89;96.84
16355;BME280;8287;51.644;8.494;2023-07-31T01:11:31;99775.34;;;18.91;96.57
16355;BME280;8287;51.644;8.494;2023-07-31T01:13:59;99783.03;;;18.93;96.73
16355;BME280;8287;51.644;8.494;2023-07-31T01:16:26;99778.38;;;18.90;96.90
16355;BME280;8287;51.644;8.494;2023-07-31T01:18:53;99788.00;;;18.91;96.57
16355;BME280;8287;51.644;8.494;2023-07-31T01:21:34;99788.34;;;18.86;97.79
16355;BME280;8287;51.644;8.494;2023-07-31T01:24:21;99785.25;;;18.84;97.93
16355;BME280;8287;51.644;8.494;2023-07-31T01:26:53;99788.63;;;18.74;98.81
16355;BME280;8287;51.644;8.494;2023-07-31T01:29:28;99798.94;;;18.72;99.50
16355;BME280;8287;51.644;8.494;2023-07-31T01:32:01;99797.34;;;18.64;100.00
16355;BME280;8287;51.644;8.494;2023-07-31T01:34:29;99790.84;;;18.65;100.00
16355;BME280;8287;51.644;8.494;2023-07-31T01:36:56;99791.13;;;18.53;100.00
16355;BME280;8287;51.644;8.494;2023-07-31T01:39:23;99798.84;;;18.58;100.00
16355;BME280;8287;51.644;8.494;2023-07-31T01:41:51;99791.94;;;18.57;100.00
16355;BME280;8287;51.644;8.494;2023-07-31T01:44:18;99796.53;;;18.56;100.00
16355;BME280;8287;51.644;8.494;2023-07-31T01:46:44;99797.31;;;18.57;100.00
16355;BME280;8287;51.644;8.494;2023-07-31T01:49:11;99791.16;;;18.56;100.00
16355;BME280;8287;51.644;8.494;2023-07-31T01:51:37;99783.47;;;18.55;100.00
16355;BME280;8287;51.644;8.494;2023-07-31T01:54:04;99783.06;;;18.53;100.00
16355;BME280;8287;51.644;8.494;2023-07-31T01:56:30;99784.25;;;18.55;100.00
16355;BME280;8287;51.644;8.494;2023-07-31T01:58:58;99789.94;;;18.50;100.00
16355;BME280;8287;51.644;8.494;2023-07-31T02:01:25;99783.38;;;18.48;100.00
16355;BME280;8287;51.644;8.494;2023-07-31T02:03:52;99769.63;;;18.49;100.00
16355;BME280;8287;51.644;8.494;2023-07-31T02:06:19;99777.22;;;18.44;100.00
16355;BME280;8287;51.644;8.494;2023-07-31T02:08:45;99777.22;;;18.44;100.00
16355;BME280;8287;51.644;8.494;2023-07-31T02:11:12;99774.22;;;18.49;100.00
16355;BME280;8287;51.644;8.494;2023-07-31T02:13:39;99764.22;;;18.46;100.00
16355;BME280;8287;51.644;8.494;2023-07-31T02:16:06;99760.41;;;18.50;100.00
16355;BME280;8287;51.644;8.494;2023-07-31T02:18:33;99761.25;;;18.54;100.00
16355;BME280;8287;51.644;8.494;2023-07-31T02:21:00;99753.63;;;18.60;100.00
16355;BME280;8287;51.644;8.494;2023-07-31T02:23:26;99763.56;;;18.59;100.00
16355;BME280;8287;51.644;8.494;2023-07-31T02:25:53;99755.56;;;18.66;100.00
16355;BME280;8287;51.644;8.494;2023-07-31T02:28:19;99751.31;;;18.62;100.00
16355;BME280;8287;51.644;8.494;2023-07-31T02:30:46;99744.88;;;18.70;100.00
16355;BME280;8287;51.644;8.494;2023-07-31T02:33:14;99746.81;;;18.73;100.00
16355;BME280;8287;51.644;8.494;2023-07-31T02:35:41;99753.75;;;18.77;99.43
16355;BME280;8287;51.644;8.494;2023-07-31T02:38:07;99754.06;;;18.69;99.60
16355;BME280;8287;51.644;8.494;2023-07-31T02:40:34;99750.63;;;18.72;99.02
16355;BME280;8287;51.644;8.494;2023-07-31T02:43:00;99759.06;;;18.67;99.33
16355;BME280;8287;51.644;8.494;2023-07-31T02:45:27;99752.19;;;18.73;99.27
16355;BME280;8287;51.644;8.494;2023-07-31T02:47:54;99754.09;;;18.72;99.40
16355;BME280;8287;51.644;8.494;2023-07-31T02:50:21;99745.66;;;18.70;98.84
16355;BME280;8287;51.644;8.494;2023-07-31T02:52:48;99757.94;;;18.71;98.64
16355;BME280;8287;51.644;8.494;2023-07-31T02:55:15;99757.19;;;18.74;98.17
16355;BME280;8287;51.644;8.494;2023-07-31T02:57:41;99756.78;;;18.72;98.17
16355;BME280;8287;51.644;8.494;2023-07-31T03:00:08;99755.25;;;18.71;98.15
16355;BME280;8287;51.644;8.494;2023-07-31T03:02:35;99755.66;;;18.73;97.48
16355;BME280;8287;51.644;8.494;2023-07-31T03:05:02;99750.56;;;18.65;98.51
16355;BME280;8287;51.644;8.494;2023-07-31T03:07:30;99751.38;;;18.69;97.61
16355;BME280;8287;51.644;8.494;2023-07-31T03:09:56;99757.94;;;18.71;97.81
16355;BME280;8287;51.644;8.494;2023-07-31T03:12:23;99752.16;;;18.66;98.27
16355;BME280;8287;51.644;8.494;2023-07-31T03:14:50;99756.75;;;18.69;98.28
16355;BME280;8287;51.644;8.494;2023-07-31T03:17:16;99758.28;;;18.70;97.90
16355;BME280;8287;51.644;8.494;2023-07-31T03:19:43;99762.91;;;18.73;97.48
16355;BME280;8287;51.644;8.494;2023-07-31T03:22:10;99769.03;;;18.70;97.04
16355;BME280;8287;51.644;8.494;2023-07-31T03:24:38;99751.78;;;18.71;97.02
16355;BME280;8287;51.644;8.494;2023-07-31T03:27:05;99754.44;;;18.67;97.15
16355;BME280;8287;51.644;8.494;2023-07-31T03:29:32;99753.31;;;18.72;96.84
16355;BME280;8287;51.644;8.494;2023-07-31T03:31:58;99746.06;;;18.72;96.28
16355;BME280;8287;51.644;8.494;2023-07-31T03:34:26;99744.88;;;18.70;96.53
16355;BME280;8287;51.644;8.494;2023-07-31T03:36:52;99737.50;;;18.60;97.19
16355;BME280;8287;51.644;8.494;2023-07-31T03:39:19;99743.38;;;18.72;95.92
16355;BME280;8287;51.644;8.494;2023-07-31T03:41:47;99747.63;;;18.77;94.78
16355;BME280;8287;51.644;8.494;2023-07-31T03:44:14;99741.06;;;18.74;95.16
16355;BME280;8287;51.644;8.494;2023-07-31T03:46:40;99735.34;;;18.76;94.86
16355;BME280;8287;51.644;8.494;2023-07-31T03:49:07;99739.50;;;18.70;95.02
16355;BME280;8287;51.644;8.494;2023-07-31T03:51:34;99728.41;;;18.71;94.87
16355;BME280;8287;51.644;8.494;2023-07-31T03:54:00;99737.19;;;18.68;94.85
16355;BME280;8287;51.644;8.494;2023-07-31T03:56:27;99738.06;;;18.79;93.89
16355;BME280;8287;51.644;8.494;2023-07-31T03:58:55;99733.03;;;18.74;94.28
16355;BME280;8287;51.644;8.494;2023-07-31T04:01:21;99744.50;;;18.71;93.83
16355;BME280;8287;51.644;8.494;2023-07-31T04:03:48;99743.47;;;18.83;93.56
16355;BME280;8287;51.644;8.494;2023-07-31T04:06:14;99744.53;;;18.75;93.49
16355;BME280;8287;51.644;8.494;2023-07-31T04:08:43;99752.22;;;18.80;93.19
16355;BME280;8287;51.644;8.494;2023-07-31T04:11:10;99753.06;;;18.84;92.91
16355;BME280;8287;51.644;8.494;2023-07-31T04:13:36;99750.72;;;18.82;92.82
16355;BME280;8287;51.644;8.494;2023-07-31T04:16:04;99756.44;;;18.77;92.94
16355;BME280;8287;51.644;8.494;2023-07-31T04:18:31;99757.22;;;18.78;93.03
16355;BME280;8287;51.644;8.494;2023-07-31T04:20:58;99761.44;;;18.79;92.47
16355;BME280;8287;51.644;8.494;2023-07-31T04:23:26;99757.59;;;18.80;92.75
16355;BME280;8287;51.644;8.494;2023-07-31T04:25:53;99756.88;;;18.83;91.80
16355;BME280;8287;51.644;8.494;2023-07-31T04:28:19;99753.81;;;18.84;91.33
16355;BME280;8287;51.644;8.494;2023-07-31T04:30:46;99749.22;;;18.85;90.80
16355;BME280;8287;51.644;8.494;2023-07-31T04:33:14;99748.06;;;18.86;90.38
16355;BME280;8287;51.644;8.494;2023-07-31T04:35:41;99755.38;;;18.89;89.18
16355;BME280;8287;51.644;8.494;2023-07-31T04:38:07;99745.41;;;18.89;89.09
16355;BME280;8287;51.644;8.494;2023-07-31T04:40:34;99750.78;;;18.89;89.57
16355;BME280;8287;51.644;8.494;2023-07-31T04:43:00;99749.25;;;18.88;89.67
16355;BME280;8287;51.644;8.494;2023-07-31T04:45:27;99756.19;;;18.93;89.48
16355;BME280;8287;51.644;8.494;2023-07-31T04:47:54;99751.97;;;18.95;88.56
16355;BME280;8287;51.644;8.494;2023-07-31T04:50:21;99746.97;;;18.94;88.93
16355;BME280;8287;51.644;8.494;2023-07-31T04:52:48;99743.19;;;18.98;89.03
16355;BME280;8287;51.644;8.494;2023-07-31T04:55:15;99741.97;;;18.92;89.56
16355;BME280;8287;51.644;8.494;2023-07-31T04:57:41;99741.22;;;18.92;89.53
16355;BME280;8287;51.644;8.494;2023-07-31T05:00:08;99742.38;;;18.91;89.61
16355;BME280;8287;51.644;8.494;2023-07-31T05:02:35;99738.59;;;18.99;89.12
16355;BME280;8287;51.644;8.494;2023-07-31T05:05:02;99746.28;;;19.04;88.95
16355;BME280;8287;51.644;8.494;2023-07-31T05:07:30;99743.63;;;19.07;88.39
16355;BME280;8287;51.644;8.494;2023-07-31T05:09:57;99741.66;;;19.01;88.44
16355;BME280;8287;51.644;8.494;2023-07-31T05:12:23;99745.19;;;19.12;88.19
16355;BME280;8287;51.644;8.494;2023-07-31T05:14:50;99732.91;;;19.11;88.96
16355;BME280;8287;51.644;8.494;2023-07-31T05:17:16;99742.91;;;19.17;87.30
16355;BME280;8287;51.644;8.494;2023-07-31T05:19:43;99747.53;;;19.17;87.61
16355;BME280;8287;51.644;8.494;2023-07-31T05:22:09;99740.19;;;19.14;87.12
16355;BME280;8287;51.644;8.494;2023-07-31T05:24:37;99734.09;;;19.17;87.11
16355;BME280;8287;51.644;8.494;2023-07-31T05:27:05;99736.44;;;19.22;87.15
16355;BME280;8287;51.644;8.494;2023-07-31T05:29:31;99729.19;;;19.26;87.19
16355;BME280;8287;51.644;8.494;2023-07-31T05:31:58;99736.47;;;19.25;87.05
16355;BME280;8287;51.644;8.494;2023-07-31T05:34:24;99736.09;;;19.27;87.26
16355;BME280;8287;51.644;8.494;2023-07-31T05:36:51;99734.19;;;19.31;87.31
16355;BME280;8287;51.644;8.494;2023-07-31T05:39:18;99724.97;;;19.32;87.55
16355;BME280;8287;51.644;8.494;2023-07-31T05:41:46;99734.22;;;19.34;87.81
16355;BME280;8287;51.644;8.494;2023-07-31T05:44:13;99728.09;;;19.34;88.25
16355;BME280;8287;51.644;8.494;2023-07-31T05:46:40;99728.13;;;19.41;87.72
16355;BME280;8287;51.644;8.494;2023-07-31T05:49:07;99728.91;;;19.45;87.65
16355;BME280;8287;51.644;8.494;2023-07-31T05:51:33;99731.22;;;19.50;87.32
16355;BME280;8287;51.644;8.494;2023-07-31T05:54:00;99717.41;;;19.55;87.03
16355;BME280;8287;51.644;8.494;2023-07-31T05:56:26;99718.59;;;19.57;86.84
16355;BME280;8287;51.644;8.494;2023-07-31T05:58:54;99713.59;;;19.63;86.89
16355;BME280;8287;51.644;8.494;2023-07-31T06:01:22;99710.16;;;19.59;87.10
16355;BME280;8287;51.644;8.494;2023-07-31T06:03:49;99706.69;;;19.58;86.78
16355;BME280;8287;51.644;8.494;2023-07-31T06:06:15;99710.56;;;19.68;86.57
16355;BME280;8287;51.644;8.494;2023-07-31T06:08:42;99714.41;;;19.74;86.57
16355;BME280;8287;51.644;8.494;2023-07-31T06:11:08;99715.19;;;19.74;87.00
16355;BME280;8287;51.644;8.494;2023-07-31T06:13:36;99709.44;;;19.76;87.64
16355;BME280;8287;51.644;8.494;2023-07-31T06:16:04;99712.88;;;19.76;87.89
16355;BME280;8287;51.644;8.494;2023-07-31T06:18:31;99702.13;;;19.73;87.41
16355;BME280;8287;51.644;8.494;2023-07-31T06:20:58;99716.31;;;19.70;88.05
16355;BME280;8287;51.644;8.494;2023-07-31T06:23:24;99706.72;;;19.69;88.51
16355;BME280;8287;51.644;8.494;2023-07-31T06:25:51;99708.28;;;19.77;88.42
16355;BME280;8287;51.644;8.494;2023-07-31T06:28:18;99707.50;;;19.76;88.38
16355;BME280;8287;51.644;8.494;2023-07-31T06:30:44;99704.47;;;19.81;88.32
16355;BME280;8287;51.644;8.494;2023-07-31T06:33:12;99699.09;;;19.81;88.83
16355;BME280;8287;51.644;8.494;2023-07-31T06:35:39;99694.47;;;19.75;89.14
16355;BME280;8287;51.644;8.494;2023-07-31T06:38:05;99697.16;;;19.78;89.41
16355;BME280;8287;51.644;8.494;2023-07-31T06:40:32;99687.56;;;19.81;89.02
16355;BME280;8287;51.644;8.494;2023-07-31T06:42:59;99684.44;;;19.72;89.54
16355;BME280;8287;51.644;8.494;2023-07-31T06:45:31;99687.56;;;19.88;89.26
16355;BME280;8287;51.644;8.494;2023-07-31T06:47:58;99686.41;;;19.85;89.01
16355;BME280;8287;51.644;8.494;2023-07-31T06:50:28;99687.19;;;19.86;89.86
16355;BME280;8287;51.644;8.494;2023-07-31T06:52:54;99689.13;;;19.99;88.84
16355;BME280;8287;51.644;8.494;2023-07-31T06:55:21;99682.97;;;19.92;88.98
16355;BME280;8287;51.644;8.494;2023-07-31T06:57:49;99686.81;;;20.01;88.33
16355;BME280;8287;51.644;8.494;2023-07-31T07:00:16;99692.59;;;19.93;88.45
16355;BME280;8287;51.644;8.494;2023-07-31T07:02:43;99677.63;;;19.95;89.30
16355;BME280;8287;51.644;8.494;2023-07-31T07:05:09;99673.78;;;19.96;88.64
16355;BME280;8287;51.644;8.494;2023-07-31T07:07:38;99680.28;;;19.88;89.67
16355;BME280;8287;51.644;8.494;2023-07-31T07:10:06;99687.19;;;19.89;89.87
16355;BME280;8287;51.644;8.494;2023-07-31T07:12:33;99678.38;;;19.99;88.48
16355;BME280;8287;51.644;8.494;2023-07-31T07:14:59;99670.66;;;19.94;88.85
16355;BME280;8287;51.644;8.494;2023-07-31T07:17:27;99661.47;;;19.95;88.30
16355;BME280;8287;51.644;8.494;2023-07-31T07:19:55;99657.28;;;20.05;87.79
16355;BME280;8287;51.644;8.494;2023-07-31T07:22:21;99660.75;;;20.05;87.69
16355;BME280;8287;51.644;8.494;2023-07-31T07:24:49;99658.81;;;20.06;87.21
16355;BME280;8287;51.644;8.494;2023-07-31T07:27:16;99667.63;;;19.99;87.46
16355;BME280;8287;51.644;8.494;2023-07-31T07:29:42;99666.84;;;19.99;88.21
16355;BME280;8287;51.644;8.494;2023-07-31T07:32:09;99671.44;;;19.91;88.48
16355;BME280;8287;51.644;8.494;2023-07-31T07:34:37;99669.94;;;19.97;88.45
16355;BME280;8287;51.644;8.494;2023-07-31T07:37:04;99661.84;;;19.97;89.10
16355;BME280;8287;51.644;8.494;2023-07-31T07:39:31;99664.97;;;20.10;87.99
16355;BME280;8287;51.644;8.494;2023-07-31T07:41:58;99663.06;;;20.14;87.54
16355;BME280;8287;51.644;8.494;2023-07-31T07:44:25;99671.50;;;20.09;89.00
16355;BME280;8287;51.644;8.494;2023-07-31T07:46:52;99670.72;;;20.08;89.44
16355;BME280;8287;51.644;8.494;2023-07-31T07:49:18;99659.97;;;20.05;90.43
16355;BME280;8287;51.644;8.494;2023-07-31T07:51:47;99672.22;;;19.99;90.59
16355;BME280;8287;51.644;8.494;2023-07-31T07:54:14;99684.88;;;19.88;91.62
16355;BME280;8287;51.644;8.494;2023-07-31T07:56:42;99682.19;;;19.88;92.50
16355;BME280;8287;51.644;8.494;2023-07-31T07:59:10;99686.81;;;19.94;92.45
16355;BME280;8287;51.644;8.494;2023-07-31T08:01:37;99676.84;;;19.95;93.29
16355;BME280;8287;51.644;8.494;2023-07-31T08:04:03;99670.69;;;20.01;92.65
16355;BME280;8287;51.644;8.494;2023-07-31T08:06:30;99674.16;;;20.02;92.38
16355;BME280;8287;51.644;8.494;2023-07-31T08:08:56;99668.41;;;20.07;92.80
16355;BME280;8287;51.644;8.494;2023-07-31T08:11:23;99660.75;;;20.09;92.42
16355;BME280;8287;51.644;8.494;2023-07-31T08:13:50;99658.44;;;20.11;92.92
16355;BME280;8287;51.644;8.494;2023-07-31T08:16:18;99650.75;;;20.06;92.52
16355;BME280;8287;51.644;8.494;2023-07-31T08:18:44;99650.75;;;20.06;92.41
16355;BME280;8287;51.644;8.494;2023-07-31T08:21:11;99648.81;;;20.03;92.61
16355;BME280;8287;51.644;8.494;2023-07-31T08:23:37;99641.91;;;20.16;91.41
16355;BME280;8287;51.644;8.494;2023-07-31T08:26:04;99642.31;;;20.18;91.56
16355;BME280;8287;51.644;8.494;2023-07-31T08:28:30;99639.25;;;20.12;91.20
16355;BME280;8287;51.644;8.494;2023-07-31T08:30:57;99624.63;;;20.24;89.21
16355;BME280;8287;51.644;8.494;2023-07-31T08:33:25;99634.22;;;20.32;88.11
16355;BME280;8287;51.644;8.494;2023-07-31T08:35:51;99641.16;;;20.43;87.98
16355;BME280;8287;51.644;8.494;2023-07-31T08:38:18;99636.53;;;20.37;88.29
16355;BME280;8287;51.644;8.494;2023-07-31T08:40:45;99630.38;;;20.53;86.30
16355;BME280;8287;51.644;8.494;2023-07-31T08:43:11;99632.69;;;20.51;87.15
16355;BME280;8287;51.644;8.494;2023-07-31T08:45:38;99631.91;;;20.54;86.55
16355;BME280;8287;51.644;8.494;2023-07-31T08:48:08;99630.38;;;20.53;86.77
16355;BME280;8287;51.644;8.494;2023-07-31T08:50:36;99622.31;;;20.46;86.67
16355;BME280;8287;51.644;8.494;2023-07-31T08:53:04;99631.16;;;20.50;87.79
16355;BME280;8287;51.644;8.494;2023-07-31T08:55:32;99629.22;;;20.61;86.98
16355;BME280;8287;51.644;8.494;2023-07-31T08:57:59;99630.75;;;20.66;85.54
16355;BME280;8287;51.644;8.494;2023-07-31T09:00:27;99626.16;;;20.56;86.20
16355;BME280;8287;51.644;8.494;2023-07-31T09:02:57;99626.91;;;20.56;86.54
16355;BME280;8287;51.644;8.494;2023-07-31T09:05:26;99626.91;;;20.56;86.99
16355;BME280;8287;51.644;8.494;2023-07-31T09:07:55;99616.53;;;20.58;86.21
16355;BME280;8287;51.644;8.494;2023-07-31T09:10:23;99613.03;;;20.79;84.61
16355;BME280;8287;51.644;8.494;2023-07-31T09:12:51;99608.41;;;20.86;83.50
16355;BME280;8287;51.644;8.494;2023-07-31T09:15:18;99612.25;;;20.85;83.31
16355;BME280;8287;51.644;8.494;2023-07-31T09:17:45;99609.94;;;20.94;83.75
16355;BME280;8287;51.644;8.494;2023-07-31T09:20:16;99611.44;;;21.06;82.96
16355;BME280;8287;51.644;8.494;2023-07-31T09:22:44;99613.31;;;21.16;82.88
16355;BME280;8287;51.644;8.494;2023-07-31T09:25:16;99617.16;;;21.18;83.25
16355;BME280;8287;51.644;8.494;2023-07-31T09:27:47;99612.13;;;21.20;83.58
16355;BME280;8287;51.644;8.494;2023-07-31T09:30:14;99613.66;;;21.28;83.43
16355;BME280;8287;51.644;8.494;2023-07-31T09:32:42;99600.50;;;21.37;82.30
16355;BME280;8287;51.644;8.494;2023-07-31T09:35:20;99614.72;;;21.41;82.42
16355;BME280;8287;51.644;8.494;2023-07-31T09:37:51;99610.50;;;21.37;82.97
16355;BME280;8287;51.644;8.494;2023-07-31T09:40:30;99600.94;;;21.29;83.79
16355;BME280;8287;51.644;8.494;2023-07-31T09:42:58;99605.75;;;21.62;82.64
16355;BME280;8287;51.644;8.494;2023-07-31T09:45:25;99598.06;;;21.67;81.10
16355;BME280;8287;51.644;8.494;2023-07-31T09:47:52;99607.28;;;21.66;80.04
16355;BME280;8287;51.644;8.494;2023-07-31T09:50:20;99601.50;;;21.64;80.69
16355;BME280;8287;51.644;8.494;2023-07-31T09:52:47;99588.81;;;21.68;80.80
16355;BME280;8287;51.644;8.494;2023-07-31T09:55:13;99591.84;;;21.74;81.98
16355;BME280;8287;51.644;8.494;2023-07-31T09:57:43;99583.75;;;21.77;80.59
16355;BME280;8287;51.644;8.494;2023-07-31T10:00:11;99588.66;;;21.89;79.70
16355;BME280;8287;51.644;8.494;2023-07-31T10:02:39;99588.28;;;21.87;78.36
16355;BME280;8287;51.644;8.494;2023-07-31T10:05:06;99582.50;;;21.89;78.50
16355;BME280;8287;51.644;8.494;2023-07-31T10:07:36;99569.38;;;21.91;78.96
16355;BME280;8287;51.644;8.494;2023-07-31T10:10:06;99574.78;;;21.91;78.38
16355;BME280;8287;51.644;8.494;2023-07-31T10:12:33;99581.66;;;21.95;78.68
16355;BME280;8287;51.644;8.494;2023-07-31T10:15:03;99574.75;;;21.94;77.29
16355;BME280;8287;51.644;8.494;2023-07-31T10:17:30;99575.44;;;22.02;77.65
16355;BME280;8287;51.644;8.494;2023-07-31T10:19:58;99576.59;;;22.04;79.29
16355;BME280;8287;51.644;8.494;2023-07-31T10:22:26;99578.56;;;22.00;79.26
16355;BME280;8287;51.644;8.494;2023-07-31T10:24:54;99573.88;;;22.08;78.92
16355;BME280;8287;51.644;8.494;2023-07-31T10:27:21;99581.88;;;22.18;77.88
16355;BME280;8287;51.644;8.494;2023-07-31T10:29:48;99587.38;;;22.04;78.65
16355;BME280;8287;51.644;8.494;2023-07-31T10:32:17;99584.88;;;21.80;81.11
16355;BME280;8287;51.644;8.494;2023-07-31T10:34:44;99589.47;;;21.83;81.51
16355;BME280;8287;51.644;8.494;2023-07-31T10:37:21;99597.66;;;21.62;83.22
16355;BME280;8287;51.644;8.494;2023-07-31T10:39:56;99595.81;;;21.48;84.64
16355;BME280;8287;51.644;8.494;2023-07-31T10:42:28;99595.16;;;21.30;85.28
16355;BME280;8287;51.644;8.494;2023-07-31T10:44:57;99595.63;;;21.11;84.97
16355;BME280;8287;51.644;8.494;2023-07-31T10:47:25;99595.66;;;21.04;86.31
16355;BME280;8287;51.644;8.494;2023-07-31T10:49:52;99588.34;;;21.08;85.88
16355;BME280;8287;51.644;8.494;2023-07-31T10:52:20;99574.88;;;21.01;85.60
16355;BME280;8287;51.644;8.494;2023-07-31T10:54:49;99577.59;;;21.01;86.38
16355;BME280;8287;51.644;8.494;2023-07-31T10:57:20;99575.28;;;20.96;87.28
16355;BME280;8287;51.644;8.494;2023-07-31T10:59:45;99577.13;;;21.13;86.72
16355;BME280;8287;51.644;8.494;2023-07-31T11:02:24;99572.09;;;21.22;87.31
16355;BME280;8287;51.644;8.494;2023-07-31T11:07:48;99553.09;;;21.50;87.85
16355;BME280;8287;51.644;8.494;2023-07-31T11:10:18;99558.78;;;21.63;87.63
16355;BME280;8287;51.644;8.494;2023-07-31T11:12:45;99553.28;;;21.77;86.38
16355;BME280;8287;51.644;8.494;2023-07-31T11:15:12;99552.13;;;21.78;85.49
16355;BME280;8287;51.644;8.494;2023-07-31T11:17:39;99554.06;;;21.77;84.57
16355;BME280;8287;51.644;8.494;2023-07-31T11:20:07;99557.09;;;21.86;84.10
16355;BME280;8287;51.644;8.494;2023-07-31T11:22:34;99561.31;;;21.87;83.66
16355;BME280;8287;51.644;8.494;2023-07-31T11:25:02;99559.81;;;21.83;81.06
16355;BME280;8287;51.644;8.494;2023-07-31T11:27:29;99560.94;;;21.85;81.64
16355;BME280;8287;51.644;8.494;2023-07-31T11:30:00;99560.63;;;21.76;82.02
16355;BME280;8287;51.644;8.494;2023-07-31T11:32:27;99556.00;;;21.77;81.58
16355;BME280;8287;51.644;8.494;2023-07-31T11:34:54;99559.16;;;21.68;81.75
16355;BME280;8287;51.644;8.494;2023-07-31T11:37:21;99555.66;;;21.64;82.80
16355;BME280;8287;51.644;8.494;2023-07-31T11:39:58;99561.06;;;21.61;83.96
16355;BME280;8287;51.644;8.494;2023-07-31T11:42:26;99559.22;;;21.51;85.63
16355;BME280;8287;51.644;8.494;2023-07-31T11:44:53;99549.59;;;21.50;85.74
16355;BME280;8287;51.644;8.494;2023-07-31T11:47:20;99548.13;;;21.38;87.15
16355;BME280;8287;51.644;8.494;2023-07-31T11:49:47;99551.22;;;21.37;86.82
16355;BME280;8287;51.644;8.494;2023-07-31T11:52:15;99545.09;;;21.29;87.77
16355;BME280;8287;51.644;8.494;2023-07-31T11:54:42;99552.44;;;21.29;88.69
16355;BME280;8287;51.644;8.494;2023-07-31T11:57:09;99548.47;;;21.44;88.20
16355;BME280;8287;51.644;8.494;2023-07-31T11:59:37;99546.22;;;21.35;89.49
16355;BME280;8287;51.644;8.494;2023-07-31T12:02:04;99539.69;;;21.33;89.68
16355;BME280;8287;51.644;8.494;2023-07-31T12:04:31;99526.47;;;21.52;88.96
16355;BME280;8287;51.644;8.494;2023-07-31T12:06:59;99524.91;;;21.58;88.51
16355;BME280;8287;51.644;8.494;2023-07-31T12:09:26;99528.00;;;21.57;87.11
16355;BME280;8287;51.644;8.494;2023-07-31T12:11:53;99515.63;;;21.63;87.28
16355;BME280;8287;51.644;8.494;2023-07-31T12:14:20;99520.16;;;21.80;88.23
16355;BME280;8287;51.644;8.494;2023-07-31T12:16:53;99516.97;;;21.88;87.78
16355;BME280;8287;51.644;8.494;2023-07-31T12:19:21;99511.59;;;21.88;85.07
16355;BME280;8287;51.644;8.494;2023-07-31T12:21:47;99513.63;;;22.18;82.83
16355;BME280;8287;51.644;8.494;2023-07-31T12:24:14;99516.00;;;22.12;83.30
16355;BME280;8287;51.644;8.494;2023-07-31T12:26:45;99512.53;;;22.12;82.88
16355;BME280;8287;51.644;8.494;2023-07-31T12:29:12;99512.06;;;22.20;81.89
16355;BME280;8287;51.644;8.494;2023-07-31T12:31:41;99507.81;;;22.23;81.33
16355;BME280;8287;51.644;8.494;2023-07-31T12:34:16;99524.34;;;22.25;81.31
16355;BME280;8287;51.644;8.494;2023-07-31T12:36:44;99527.91;;;22.18;79.44
16355;BME280;8287;51.644;8.494;2023-07-31T12:39:10;99530.28;;;22.09;80.25
16355;BME280;8287;51.644;8.494;2023-07-31T12:41:37;99521.84;;;22.04;80.35
16355;BME280;8287;51.644;8.494;2023-07-31T12:44:04;99524.97;;;22.02;79.74
16355;BME280;8287;51.644;8.494;2023-07-31T12:46:30;99524.59;;;22.00;79.36
16355;BME280;8287;51.644;8.494;2023-07-31T12:48:57;99533.91;;;21.92;80.56
16355;BME280;8287;51.644;8.494;2023-07-31T12:51:25;99529.31;;;21.86;80.88
16355;BME280;8287;51.644;8.494;2023-07-31T12:53:52;99532.47;;;21.81;80.79
16355;BME280;8287;51.644;8.494;2023-07-31T12:56:19;99535.47;;;21.90;81.07
16355;BME280;8287;51.644;8.494;2023-07-31T12:58:45;99538.56;;;21.88;80.54
16355;BME280;8287;51.644;8.494;2023-07-31T13:01:12;99535.47;;;21.90;80.12
16355;BME280;8287;51.644;8.494;2023-07-31T13:03:38;99530.44;;;21.92;80.40
16355;BME280;8287;51.644;8.494;2023-07-31T13:06:05;99517.34;;;21.90;80.01
16355;BME280;8287;51.644;8.494;2023-07-31T13:08:33;99517.75;;;21.89;80.25
16355;BME280;8287;51.644;8.494;2023-07-31T13:10:59;99528.44;;;21.99;79.94
16355;BME280;8287;51.644;8.494;2023-07-31T13:13:26;99529.25;;;21.96;80.09